DW4513 Weather Reports


Display with metric or nautical units.
time (UTC)temp
F
wind
direction
speed
MPH
gust
MPH
rain 1hr
in
rain 24hr
in
rain mn
in
humidity
%
barometer
mb
20210925224540 66 153 0.0 0.0 0.30 1.32 1.30 95 1014.7
20210925223049 66 153 0.0 0.0 0.04 1.05 1.03 95 1014.6
20210925221543 66 153 0.0 2.0 0.01 1.02 1.00 95 1014.6
20210925220058 66 191 0.0 1.0 0.01 1.02 1.00 95 1014.7
20210925214534 66 208 0.0 0.0 0.04 1.02 1.00 95 1014.8
20210925213032 66 207 0.0 3.0 0.03 1.01 0.99 95 1015.0
20210925211609 66 204 0.0 0.0 0.03 1.01 0.99 95 1015.0
20210925210036 66 204 0.0 0.0 0.03 1.02 0.99 95 1015.0
20210925204601 66 204 0.0 0.0 0.00 0.99 0.96 95 1015.0
20210925203032 66 200 0.0 0.0 0.00 0.99 0.96 95 1015.1
20210925201546 67 200 0.0 2.0 0.00 0.99 0.96 95 1015.2
20210925200055 67 215 0.0 0.0 0.04 0.99 0.96 95 1015.5
20210925194554 67 210 0.0 1.0 0.07 0.99 0.96 95 1015.5
20210925193023 68 211 0.0 2.0 0.09 0.99 0.96 95 1015.5
20210925191520 68 213 0.0 1.0 0.13 0.99 0.96 95 1015.5
20210925190019 68 216 0.0 2.0 0.08 0.94 0.92 95 1015.6
20210925184515 68 178 0.0 2.0 0.07 0.92 0.89 95 1015.8
20210925183029 68 195 0.0 2.0 0.05 0.90 0.87 95 1016.0
20210925181520 68 194 0.0 2.0 0.01 0.86 0.83 95 1016.1
20210925180010 68 190 0.0 3.0 0.01 0.86 0.83 95 1016.4
20210925174509 68 195 0.0 2.0 0.01 0.85 0.82 95 1016.6
20210925173007 67 207 0.0 4.0 0.04 0.85 0.82 95 1016.8
20210925171521 67 204 0.0 2.0 0.06 0.85 0.82 95 1016.8
20210925170004 67 204 0.0 0.0 0.07 0.85 0.82 95 1016.9
20210925164502 68 204 0.0 0.0 0.06 0.84 0.81 95 1017.1
20210925163005 67 205 0.0 0.0 0.02 0.80 0.77 96 1017.1
20210925161623 68 205 0.0 0.0 0.01 0.79 0.76 96 1017.2
20210925160126 68 205 0.0 1.0 0.00 0.78 0.75 96 1017.2
20210925154707 68 206 0.0 1.0 0.00 0.78 0.75 96 1017.4
20210925153203 67 206 0.0 0.0 0.00 0.78 0.75 96 1017.6
20210925151601 67 206 0.0 0.0 0.00 0.78 0.75 96 1017.6
20210925150125 66 205 0.0 0.0 0.00 0.78 0.75 96 1017.7
20210925144625 66 205 0.0 0.0 0.03 0.78 0.75 96 1017.7
20210925143129 65 205 0.0 1.0 0.03 0.78 0.75 96 1017.7
20210925141631 65 198 0.0 0.0 0.03 0.78 0.75 96 1017.8
20210925140052 64 194 0.0 1.0 0.08 0.78 0.75 96 1017.8
20210925134556 64 194 0.0 2.0 0.12 0.76 0.72 96 1017.9
20210925133221 64 194 0.0 1.0 0.12 0.76 0.72 96 1017.8
20210925131551 64 194 0.0 0.0 0.12 0.76 0.72 96 1017.6
20210925130049 64 221 0.0 0.0 0.07 0.71 0.67 96 1017.9
20210925124639 64 221 0.0 2.0 0.00 0.64 0.60 96 1018.0
20210925123112 64 210 0.0 3.0 0.00 0.64 0.60 96 1017.9
20210925120040 64 188 0.0 2.0 0.00 0.66 0.60 95 1017.6
20210925114619 64 188 0.0 3.0 0.00 0.66 0.60 95 1017.8
20210925113103 64 226 0.0 1.0 0.00 0.66 0.60 95 1017.8
20210925111607 64 229 0.0 0.0 0.01 0.66 0.60 95 1017.6
20210925110037 64 229 0.0 0.0 0.01 0.66 0.60 95 1017.5
20210925104550 64 229 0.0 1.0 0.01 0.66 0.60 95 1017.6
20210925103030 64 144 0.0 3.0 0.01 0.66 0.60 95 1017.5
20210925101602 64 223 0.0 1.0 0.00 0.65 0.59 95 1017.6
20210925100048 64 223 0.0 0.0 0.00 0.65 0.59 95 1017.5
20210925094548 64 249 0.0 2.0 0.00 0.65 0.59 95 1017.4
20210925093132 64 244 0.0 3.0 0.00 0.65 0.59 95 1017.3
20210925091530 64 206 0.0 3.0 0.01 0.65 0.59 95 1017.4
20210925090105 64 177 0.0 4.0 0.04 0.65 0.59 95 1017.4
20210925084527 64 190 0.0 6.0 0.08 0.65 0.59 95 1017.4
20210925083020 64 148 0.0 2.0 0.36 0.65 0.59 95 1017.2
20210925081536 64 161 0.0 5.0 0.39 0.64 0.57 95 1017.4
20210925080025 64 153 0.0 5.0 0.38 0.61 0.55 95 1017.6
20210925074555 64 109 1.0 5.0 0.38 0.56 0.51 95 1017.4
20210925073054 64 142 1.0 9.0 0.20 0.28 0.23 95 1017.6
20210925071541 64 151 1.0 6.0 0.18 0.25 0.19 95 1017.6
20210925070034 64 142 1.0 7.0 0.17 0.23 0.17 95 1017.5
20210925064530 64 136 1.0 9.0 0.13 0.19 0.13 95 1017.6
20210925063044 64 171 0.0 5.0 0.02 0.08 0.02 95 1017.6
20210925061512 65 178 1.0 4.0 0.01 0.07 0.01 94 1017.9
20210925060019 65 253 1.0 6.0 0.00 0.06 0.00 94 1018.3
20210925054516 65 301 1.0 6.0 0.00 0.06 0.00 94 1018.3
20210925053014 66 19 1.0 11.0 0.00 0.06 0.00 94 1018.1
20210925051506 66 293 2.0 9.0 0.00 0.06 0.00 94 1017.7
20210925050004 65 173 2.0 8.0 0.00 0.06 0.00 94 1017.6
20210925044505 65 150 1.0 7.0 0.00 0.06 0.00 94 1017.4
20210925043148 65 124 2.0 9.0 0.00 0.06 0.00 94 1017.4
20210925041722 66 159 0.0 6.0 0.00 0.06 0.00 94 1017.3
20210925040206 66 157 3.0 10.0 0.00 0.06 0.00 94 1017.2
20210925034704 66 113 2.0 8.0 0.00 0.06 0.06 94 1017.2
20210925033131 65 78 1.0 8.0 0.00 0.06 0.06 94 1017.4
20210925031702 65 158 0.0 5.0 0.00 0.06 0.06 94 1017.5
20210925030134 66 99 2.0 9.0 0.00 0.06 0.06 94 1017.7
20210925024820 66 126 2.0 8.0 0.01 0.06 0.06 94 1017.7
20210925023122 67 79 2.0 10.0 0.02 0.06 0.06 94 1017.5
20210925021645 67 78 3.0 11.0 0.02 0.06 0.06 94 1017.7
20210925020107 67 101 1.0 8.0 0.02 0.06 0.06 93 1018.0
20210925014652 67 231 3.0 14.0 0.01 0.05 0.05 93 1018.1
20210925013053 68 86 4.0 11.0 0.00 0.04 0.04 93 1018.1
20210925011657 67 128 2.0 11.0 0.00 0.04 0.04 93 1018.3
20210925010056 67 178 4.0 11.0 0.00 0.04 0.04 93 1018.5
20210925004604 67 99 4.0 11.0 0.00 0.04 0.04 93 1018.5
20210925003123 67 157 0.0 5.0 0.00 0.04 0.04 93 1018.5
20210925001546 67 96 1.0 9.0 0.00 0.04 0.04 93 1018.5
20210925000121 67 165 1.0 7.0 0.00 0.04 0.04 93 1018.5
20210924234553 66 130 2.0 9.0 0.00 0.04 0.04 93 1018.6
20210924233057 66 138 2.0 7.0 0.00 0.04 0.04 93 1018.5
20210924231554 66 167 0.0 7.0 0.00 0.04 0.04 93 1018.5
20210924230138 66 95 2.0 8.0 0.00 0.04 0.04 93 1018.6